createdAt,value
2022-11-19T00:00:16.215Z,12.07
2022-11-19T00:01:15.969Z,12.15
2022-11-19T00:02:16.507Z,12.09
2022-11-19T00:03:16.015Z,12.1
2022-11-19T00:04:16.284Z,12.03
2022-11-19T00:05:16.334Z,11.94
2022-11-19T00:06:16.066Z,11.87
2022-11-19T00:07:15.957Z,11.99
2022-11-19T00:08:15.840Z,11.84
2022-11-19T00:09:16.927Z,11.87
2022-11-19T00:10:15.871Z,11.83
2022-11-19T00:11:16.156Z,11.8
2022-11-19T00:12:16.167Z,11.8
2022-11-19T00:13:16.178Z,11.75
2022-11-19T00:14:16.220Z,11.8
2022-11-19T00:15:16.471Z,11.68
2022-11-19T00:16:16.226Z,11.7
2022-11-19T00:17:16.260Z,11.66
2022-11-19T00:18:16.585Z,11.62
2022-11-19T00:19:16.595Z,11.55
2022-11-19T00:20:16.583Z,11.62
2022-11-19T00:21:16.593Z,11.57
2022-11-19T00:22:16.331Z,11.55
2022-11-19T00:23:16.348Z,11.54
2022-11-19T00:24:16.634Z,11.52
2022-11-19T00:25:16.126Z,11.47
2022-11-19T00:26:16.401Z,11.5
2022-11-19T00:27:16.423Z,11.48
2022-11-19T00:28:16.701Z,11.51
2022-11-19T00:29:23.386Z,11.48
2022-11-19T00:30:52.536Z,11.5
2022-11-19T00:31:16.749Z,11.37
2022-11-19T00:32:16.248Z,11.37
2022-11-19T00:33:16.529Z,11.32
2022-11-19T00:34:16.852Z,11.35
2022-11-19T00:35:16.823Z,11.35
2022-11-19T00:36:16.833Z,11.32
2022-11-19T00:37:16.886Z,11.33
2022-11-19T00:38:16.610Z,11.33
2022-11-19T00:39:17.179Z,11.19
2022-11-19T00:40:16.903Z,11.25
2022-11-19T00:41:16.927Z,11.23
2022-11-19T00:42:16.674Z,11.15
2022-11-19T00:43:16.699Z,11.19
2022-11-19T00:44:16.718Z,11.17
2022-11-19T00:45:16.725Z,11.14
2022-11-19T00:46:16.993Z,11.05
2022-11-19T00:47:16.768Z,11.12
2022-11-19T00:48:16.779Z,11.1
2022-11-19T00:49:17.003Z,11.11
2022-11-19T00:50:16.874Z,11
2022-11-19T00:51:16.822Z,11.02
2022-11-19T00:52:16.845Z,11.05
2022-11-19T00:53:17.156Z,10.97
2022-11-19T00:54:17.137Z,10.99
2022-11-19T00:55:16.902Z,11.05
2022-11-19T00:56:17.167Z,10.99
2022-11-19T00:57:16.929Z,10.93
2022-11-19T00:58:17.200Z,10.97
2022-11-19T00:59:17.715Z,10.99
2022-11-19T01:00:16.986Z,11
2022-11-19T01:01:17.357Z,11.04
2022-11-19T01:02:17.015Z,10.94
2022-11-19T01:03:17.291Z,10.93
2022-11-19T01:04:17.301Z,10.94
2022-11-19T01:05:16.810Z,10.78
2022-11-19T01:06:22.670Z,10.9
2022-11-19T01:07:17.485Z,10.89
2022-11-19T01:08:17.104Z,10.86
2022-11-19T01:09:17.782Z,10.86
2022-11-19T01:10:17.421Z,10.92
2022-11-19T01:11:17.166Z,10.79
2022-11-19T01:12:17.181Z,10.92
2022-11-19T01:13:17.442Z,10.82
2022-11-19T01:14:17.480Z,10.82
2022-11-19T01:15:17.374Z,10.76
2022-11-19T01:16:17.242Z,10.74
2022-11-19T01:17:17.520Z,10.78
2022-11-19T01:18:17.298Z,10.79
2022-11-19T01:19:17.677Z,10.71
2022-11-19T01:20:17.753Z,10.75
2022-11-19T01:21:17.326Z,10.69
2022-11-19T01:22:17.798Z,10.69
2022-11-19T01:23:17.502Z,10.68
2022-11-19T01:24:17.832Z,10.63
2022-11-19T01:25:17.786Z,10.68
2022-11-19T01:26:17.714Z,10.67
2022-11-19T01:27:17.460Z,10.61
2022-11-19T01:28:17.492Z,10.63
2022-11-19T01:29:17.997Z,10.6
2022-11-19T01:30:17.471Z,10.69
2022-11-19T01:31:17.488Z,10.64
2022-11-19T01:32:17.487Z,10.53
2022-11-19T01:33:17.779Z,10.53
2022-11-19T01:34:17.793Z,10.56
2022-11-19T01:35:17.583Z,10.48
2022-11-19T01:36:17.573Z,10.49
2022-11-19T01:37:17.573Z,10.56
2022-11-19T01:38:17.902Z,10.44
2022-11-19T01:39:18.174Z,10.42
2022-11-19T01:40:17.877Z,10.46
2022-11-19T01:41:17.803Z,10.37
2022-11-19T01:42:17.658Z,10.44
2022-11-19T01:43:17.943Z,10.38
2022-11-19T01:44:17.701Z,10.38
2022-11-19T01:45:17.972Z,10.34
2022-11-19T01:46:17.717Z,10.41
2022-11-19T01:47:17.743Z,10.41
2022-11-19T01:48:17.781Z,10.28
2022-11-19T01:49:18.455Z,10.37
2022-11-19T01:50:17.787Z,10.26
2022-11-19T01:51:17.817Z,10.37
2022-11-19T01:52:18.080Z,10.34
2022-11-19T01:53:18.093Z,10.3
2022-11-19T01:54:18.175Z,10.25
2022-11-19T01:55:18.131Z,10.3
2022-11-19T01:56:18.150Z,10.22
2022-11-19T01:57:17.926Z,10.28
2022-11-19T01:58:18.174Z,10.31
2022-11-19T01:59:18.512Z,10.26
2022-11-19T02:00:17.958Z,10.31
2022-11-19T02:01:18.210Z,10.26
2022-11-19T02:02:17.991Z,10.26
2022-11-19T02:03:18.255Z,10.2
2022-11-19T02:04:18.021Z,10.26
2022-11-19T02:05:18.441Z,10.25
2022-11-19T02:06:18.316Z,10.16
2022-11-19T02:07:18.441Z,10.16
2022-11-19T02:08:18.096Z,10.16
2022-11-19T02:09:18.577Z,10.12
2022-11-19T02:10:18.436Z,10.12
2022-11-19T02:11:18.445Z,10.09
2022-11-19T02:12:18.143Z,10.12
2022-11-19T02:13:18.189Z,10.1
2022-11-19T02:14:18.483Z,10.1
2022-11-19T02:15:18.188Z,10.12
2022-11-19T02:16:18.467Z,10.09
2022-11-19T02:17:17.968Z,10.1
2022-11-19T02:18:18.249Z,10.1
2022-11-19T02:19:18.626Z,9.98
2022-11-19T02:20:18.280Z,10.02
2022-11-19T02:21:18.543Z,10.02
2022-11-19T02:22:18.571Z,10.01
2022-11-19T02:23:18.579Z,10.07
2022-11-19T02:24:18.335Z,9.99
2022-11-19T02:25:18.357Z,9.92
2022-11-19T02:26:18.685Z,9.99
2022-11-19T02:27:18.645Z,9.92
2022-11-19T02:28:18.662Z,9.97
2022-11-19T02:29:19.254Z,9.86
2022-11-19T02:30:18.460Z,9.87
2022-11-19T02:31:18.199Z,9.92
2022-11-19T02:32:18.208Z,9.87
2022-11-19T02:33:18.486Z,9.84
2022-11-19T02:34:18.755Z,9.86
2022-11-19T02:35:18.518Z,9.82
2022-11-19T02:36:18.788Z,9.76
2022-11-19T02:37:18.811Z,9.82
2022-11-19T02:38:18.301Z,9.73
2022-11-19T02:39:19.626Z,9.82
2022-11-19T02:40:18.856Z,9.84
2022-11-19T02:41:18.617Z,9.73
2022-11-19T02:42:19.063Z,9.86
2022-11-19T02:43:18.898Z,9.74
2022-11-19T02:44:18.936Z,9.69
2022-11-19T02:45:18.703Z,9.72
2022-11-19T02:46:18.949Z,9.65
2022-11-19T02:47:18.720Z,9.73
2022-11-19T02:48:18.728Z,9.66
2022-11-19T02:49:19.583Z,9.68
2022-11-19T02:50:19.019Z,9.68
2022-11-19T02:51:18.778Z,9.68
2022-11-19T02:52:18.777Z,9.66
2022-11-19T02:53:19.070Z,9.66
2022-11-19T02:54:19.084Z,9.69
2022-11-19T02:55:18.589Z,9.51
2022-11-19T02:56:18.866Z,9.62
2022-11-19T02:57:18.864Z,9.56
2022-11-19T02:58:18.944Z,9.54
2022-11-19T02:59:20.247Z,9.54
2022-11-19T03:00:18.927Z,9.56
2022-11-19T03:01:19.501Z,9.55
2022-11-19T03:02:19.203Z,9.51
2022-11-19T03:03:18.704Z,9.55
2022-11-19T03:04:19.239Z,9.55
2022-11-19T03:05:19.269Z,9.61
2022-11-19T03:06:19.418Z,9.58
2022-11-19T03:07:19.471Z,9.46
2022-11-19T03:08:19.049Z,9.44
2022-11-19T03:09:19.905Z,9.48
2022-11-19T03:10:19.335Z,9.44
2022-11-19T03:11:19.181Z,9.44
2022-11-19T03:12:19.117Z,9.5
2022-11-19T03:13:19.391Z,9.39
2022-11-19T03:14:19.201Z,9.44
2022-11-19T03:15:19.421Z,9.48
2022-11-19T03:16:19.474Z,9.46
2022-11-19T03:17:19.471Z,9.41
2022-11-19T03:18:19.459Z,9.4
2022-11-19T03:19:20.029Z,9.37
2022-11-19T03:20:19.254Z,9.37
2022-11-19T03:21:19.499Z,9.44
2022-11-19T03:22:19.518Z,9.39
2022-11-19T03:23:19.550Z,9.34
2022-11-19T03:24:19.554Z,9.34
2022-11-19T03:25:19.313Z,9.29
2022-11-19T03:26:19.583Z,9.29
2022-11-19T03:27:19.353Z,9.28
2022-11-19T03:28:19.372Z,9.26
2022-11-19T03:29:20.420Z,9.22
2022-11-19T03:30:19.446Z,9.29
2022-11-19T03:31:19.668Z,9.29
2022-11-19T03:32:19.679Z,9.22
2022-11-19T03:33:19.722Z,9.19
2022-11-19T03:34:19.733Z,9.28
2022-11-19T03:35:19.740Z,9.14
2022-11-19T03:36:19.744Z,9.21
2022-11-19T03:37:19.508Z,9.22
2022-11-19T03:38:19.804Z,9.19
2022-11-19T03:39:20.334Z,9.22
2022-11-19T03:40:19.559Z,9.14
2022-11-19T03:41:19.567Z,9.14
2022-11-19T03:42:19.843Z,9.25
2022-11-19T03:43:19.863Z,9.06
2022-11-19T03:44:19.868Z,9.16
2022-11-19T03:45:19.893Z,9.21
2022-11-19T03:46:19.943Z,9.1
2022-11-19T03:47:19.658Z,9.06
2022-11-19T03:48:19.678Z,9.1
2022-11-19T03:49:20.737Z,9.02
2022-11-19T03:50:19.709Z,9.1
2022-11-19T03:51:19.973Z,9.1
2022-11-19T03:52:20.020Z,9.08
2022-11-19T03:53:19.542Z,9.06
2022-11-19T03:54:20.030Z,9.04
2022-11-19T03:55:20.046Z,9.06
2022-11-19T03:56:19.998Z,9.08
2022-11-19T03:57:19.817Z,9.06
2022-11-19T03:58:20.095Z,9
2022-11-19T03:59:22.478Z,9.02
2022-11-19T04:00:20.118Z,8.97
2022-11-19T04:01:20.269Z,9.03
2022-11-19T04:02:20.198Z,8.92
2022-11-19T04:03:20.165Z,8.89
2022-11-19T04:04:20.184Z,8.89
2022-11-19T04:05:20.226Z,8.88
2022-11-19T04:06:20.211Z,8.85
2022-11-19T04:07:20.266Z,8.89
2022-11-19T04:08:19.992Z,8.85
2022-11-19T04:09:20.662Z,8.82
2022-11-19T04:10:20.018Z,8.85
2022-11-19T04:12:20.055Z,8.82
2022-11-19T04:13:20.074Z,8.82
2022-11-19T04:14:19.829Z,8.74
2022-11-19T04:15:20.355Z,8.71
2022-11-19T04:16:20.117Z,8.74
2022-11-19T04:17:21.401Z,8.78
2022-11-19T04:18:20.454Z,8.78
2022-11-19T04:19:21.300Z,8.74
2022-11-19T04:20:20.464Z,8.66
2022-11-19T04:21:20.467Z,8.67
2022-11-19T04:22:20.204Z,8.64
2022-11-19T04:23:20.479Z,8.7
2022-11-19T04:24:20.502Z,8.71
2022-11-19T04:25:19.990Z,8.66
2022-11-19T04:26:20.259Z,8.67
2022-11-19T04:27:20.541Z,8.63
2022-11-19T04:28:20.304Z,8.61
2022-11-19T04:29:20.925Z,8.66
2022-11-19T04:30:20.320Z,8.63
2022-11-19T04:31:22.791Z,8.61
2022-11-19T04:32:20.620Z,8.67
2022-11-19T04:33:20.375Z,8.58
2022-11-19T04:34:20.704Z,8.56
2022-11-19T04:35:20.429Z,8.52
2022-11-19T04:36:20.176Z,8.64
2022-11-19T04:37:20.726Z,8.61
2022-11-19T04:38:20.712Z,8.64
2022-11-19T04:39:21.670Z,8.48
2022-11-19T04:40:20.743Z,8.46
2022-11-19T04:41:20.762Z,8.48
2022-11-19T04:42:20.777Z,8.44
2022-11-19T04:43:20.536Z,8.42
2022-11-19T04:44:20.812Z,8.53
2022-11-19T04:45:20.573Z,8.51
2022-11-19T04:46:20.833Z,8.38
2022-11-19T04:47:20.592Z,8.38
2022-11-19T04:48:20.612Z,8.36
2022-11-19T04:49:21.459Z,8.41
2022-11-19T04:50:20.941Z,8.33
2022-11-19T04:51:20.657Z,8.37
2022-11-19T04:52:20.675Z,8.33
2022-11-19T04:53:21.001Z,8.34
2022-11-19T04:54:20.952Z,8.3
2022-11-19T04:55:20.979Z,8.34
2022-11-19T04:56:20.786Z,8.27
2022-11-19T04:57:20.732Z,8.31
2022-11-19T04:58:21.019Z,8.28
2022-11-19T04:59:21.383Z,8.26
2022-11-19T05:00:20.794Z,8.27
2022-11-19T05:01:21.248Z,8.23
2022-11-19T05:02:20.852Z,8.19
2022-11-19T05:03:20.843Z,8.3
2022-11-19T05:04:21.126Z,8.2
2022-11-19T05:05:21.154Z,8.19
2022-11-19T05:06:20.943Z,8.2
2022-11-19T05:07:21.104Z,8.16
2022-11-19T05:08:21.177Z,8.16
2022-11-19T05:09:22.437Z,8.13
2022-11-19T05:10:21.206Z,8.19
2022-11-19T05:11:20.961Z,8.13
2022-11-19T05:12:21.236Z,8.15
2022-11-19T05:13:21.257Z,8.1
2022-11-19T05:14:22.776Z,8.08
2022-11-19T05:15:21.301Z,8.09
2022-11-19T05:16:21.044Z,8.13
2022-11-19T05:17:21.061Z,8.1
2022-11-19T05:18:20.805Z,8.12
2022-11-19T05:19:21.834Z,8.12
2022-11-19T05:20:21.110Z,8.09
2022-11-19T05:21:21.115Z,8.09
2022-11-19T05:22:21.663Z,8.08
2022-11-19T05:23:21.146Z,8.03
2022-11-19T05:24:21.162Z,8.08
2022-11-19T05:25:21.197Z,8
2022-11-19T05:26:21.466Z,8
2022-11-19T05:27:21.478Z,7.98
2022-11-19T05:28:38.362Z,8.01
2022-11-19T05:29:22.121Z,8.01
2022-11-19T05:30:21.272Z,8
2022-11-19T05:31:21.265Z,7.95
2022-11-19T05:32:21.544Z,7.93
2022-11-19T05:33:21.048Z,7.95
2022-11-19T05:34:21.655Z,7.93
2022-11-19T05:35:21.601Z,7.94
2022-11-19T05:36:21.352Z,7.95
2022-11-19T05:37:21.358Z,7.85
2022-11-19T05:38:21.437Z,7.9
2022-11-19T05:39:27.684Z,7.93
2022-11-19T05:40:21.673Z,7.85
2022-11-19T05:41:21.706Z,7.9
2022-11-19T05:42:21.440Z,7.88
2022-11-19T05:43:21.196Z,7.88
2022-11-19T05:44:21.724Z,7.88
2022-11-19T05:45:21.484Z,7.94
2022-11-19T05:46:21.748Z,7.85
2022-11-19T05:47:21.722Z,7.79
2022-11-19T05:48:21.526Z,7.87
2022-11-19T05:49:22.568Z,7.82
2022-11-19T05:50:21.564Z,7.8
2022-11-19T05:51:21.826Z,7.85
2022-11-19T05:52:21.332Z,7.8
2022-11-19T05:53:21.866Z,7.8
2022-11-19T05:54:22.163Z,7.82
2022-11-19T05:55:21.880Z,7.79
2022-11-19T05:56:21.914Z,7.8
2022-11-19T05:57:22.000Z,7.82
2022-11-19T05:58:21.682Z,7.77
2022-11-19T05:59:22.833Z,7.72
2022-11-19T06:00:21.710Z,7.67
2022-11-19T06:01:21.723Z,7.7
2022-11-19T06:02:21.773Z,7.7
2022-11-19T06:03:22.121Z,7.72
2022-11-19T06:04:21.774Z,7.66
2022-11-19T06:05:22.063Z,7.63
2022-11-19T06:06:21.539Z,7.69
2022-11-19T06:07:22.349Z,7.63
2022-11-19T06:08:22.090Z,7.61
2022-11-19T06:09:23.033Z,7.61
2022-11-19T06:10:22.177Z,7.58
2022-11-19T06:11:21.899Z,7.58
2022-11-19T06:12:21.639Z,7.58
2022-11-19T06:13:22.187Z,7.53
2022-11-19T06:14:21.924Z,7.57
2022-11-19T06:15:22.246Z,7.54
2022-11-19T06:16:22.203Z,7.56
2022-11-19T06:17:22.233Z,7.57
2022-11-19T06:18:21.988Z,7.56
2022-11-19T06:19:23.283Z,7.53
2022-11-19T06:20:21.758Z,7.53
2022-11-19T06:21:21.768Z,7.42
2022-11-19T06:22:22.043Z,7.5
2022-11-19T06:23:22.325Z,7.53
2022-11-19T06:24:22.329Z,7.42
2022-11-19T06:25:22.094Z,7.42
2022-11-19T06:26:22.416Z,7.4
2022-11-19T06:27:22.115Z,7.38
2022-11-19T06:28:22.132Z,7.42
2022-11-19T06:29:23.224Z,7.38
2022-11-19T06:30:22.420Z,7.32
2022-11-19T06:31:22.178Z,7.4
2022-11-19T06:32:22.456Z,7.32
2022-11-19T06:33:22.474Z,7.28
2022-11-19T06:34:22.488Z,7.25
2022-11-19T06:35:22.502Z,7.33
2022-11-19T06:36:22.254Z,7.29
2022-11-19T06:37:22.273Z,7.25
2022-11-19T06:38:22.289Z,7.31
2022-11-19T06:39:23.582Z,7.29
2022-11-19T06:40:22.568Z,7.31
2022-11-19T06:41:22.332Z,7.25
2022-11-19T06:42:22.651Z,7.33
2022-11-19T06:43:22.621Z,7.33
2022-11-19T06:44:22.640Z,7.33
2022-11-19T06:45:22.693Z,7.25
2022-11-19T06:46:22.409Z,7.15
2022-11-19T06:47:22.418Z,7.14
2022-11-19T06:48:22.185Z,7.15
2022-11-19T06:49:26.122Z,7.24
2022-11-19T06:50:22.723Z,7.2
2022-11-19T06:51:22.519Z,7.18
2022-11-19T06:52:22.235Z,7.24
2022-11-19T06:53:22.776Z,7.29
2022-11-19T06:54:22.529Z,7.18
2022-11-19T06:55:22.802Z,7.18
2022-11-19T06:56:22.553Z,7.18
2022-11-19T06:57:22.570Z,7.2
2022-11-19T06:58:22.891Z,7.18
2022-11-19T06:59:23.382Z,7.24
2022-11-19T07:00:22.876Z,7.2
2022-11-19T07:01:22.820Z,7.15
2022-11-19T07:02:26.443Z,7.2
2022-11-19T07:03:22.966Z,7.05
2022-11-19T07:04:22.422Z,7.05
2022-11-19T07:05:22.702Z,7.15
2022-11-19T07:06:22.708Z,7.06
2022-11-19T07:07:22.833Z,7.05
2022-11-19T07:08:23.010Z,7.05
2022-11-19T07:09:23.544Z,7.06
2022-11-19T07:10:22.772Z,7.15
2022-11-19T07:11:22.787Z,7.1
2022-11-19T07:12:23.066Z,7.07
2022-11-19T07:13:23.080Z,7.07
2022-11-19T07:14:23.176Z,7.06
2022-11-19T07:15:23.099Z,7.03
2022-11-19T07:16:22.857Z,7.07
2022-11-19T07:17:23.157Z,7.07
2022-11-19T07:18:22.633Z,7.11
2022-11-19T07:19:24.163Z,7.1
2022-11-19T07:20:23.188Z,7.14
2022-11-19T07:21:23.186Z,7.07
2022-11-19T07:22:23.222Z,7.06
2022-11-19T07:23:22.966Z,7.07
2022-11-19T07:24:23.231Z,7.14
2022-11-19T07:25:23.000Z,7.06
2022-11-19T07:26:23.007Z,7.03
2022-11-19T07:27:23.289Z,6.99
2022-11-19T07:28:23.043Z,6.97
2022-11-19T07:29:24.112Z,7
2022-11-19T07:30:23.428Z,7.07
2022-11-19T07:31:23.353Z,6.95
2022-11-19T07:32:23.362Z,6.99
2022-11-19T07:33:23.410Z,7.02
2022-11-19T07:34:23.141Z,7.02
2022-11-19T07:35:23.148Z,6.96
2022-11-19T07:36:23.690Z,6.97
2022-11-19T07:37:23.171Z,6.95
2022-11-19T07:38:23.183Z,6.97
2022-11-19T07:39:24.528Z,6.96
2022-11-19T07:40:23.222Z,6.96
2022-11-19T07:41:23.499Z,7
2022-11-19T07:42:23.512Z,6.97
2022-11-19T07:43:23.516Z,6.93
2022-11-19T07:44:23.276Z,6.99
2022-11-19T07:45:23.559Z,6.95
2022-11-19T07:46:23.626Z,6.99
2022-11-19T07:47:23.323Z,6.93
2022-11-19T07:48:23.601Z,6.95
2022-11-19T07:49:24.500Z,6.95
2022-11-19T07:50:23.626Z,6.95
2022-11-19T07:51:23.716Z,6.96
2022-11-19T07:52:23.132Z,6.97
2022-11-19T07:53:23.409Z,6.99
2022-11-19T07:54:23.422Z,6.92
2022-11-19T07:55:23.703Z,6.96
2022-11-19T07:56:23.459Z,6.93
2022-11-19T07:57:30.345Z,6.93
2022-11-19T07:58:23.490Z,6.99
2022-11-19T07:59:24.355Z,6.93
2022-11-19T08:00:23.515Z,7
2022-11-19T08:01:23.709Z,6.96
2022-11-19T08:02:23.942Z,6.88
2022-11-19T08:03:23.817Z,6.95
2022-11-19T08:04:23.574Z,7
2022-11-19T08:05:23.619Z,6.95
2022-11-19T08:06:23.880Z,6.89
2022-11-19T08:07:24.058Z,6.88
2022-11-19T08:08:23.643Z,6.84
2022-11-19T08:09:24.360Z,6.89
2022-11-19T08:10:26.533Z,7
2022-11-19T08:11:23.683Z,6.97
2022-11-19T08:12:23.956Z,6.84
2022-11-19T08:13:23.975Z,6.88
2022-11-19T08:14:23.990Z,6.96
2022-11-19T08:15:23.741Z,6.85
2022-11-19T08:16:24.021Z,6.92
2022-11-19T08:17:24.039Z,6.99
2022-11-19T08:18:27.201Z,6.92
2022-11-19T08:19:24.910Z,7.02
2022-11-19T08:20:24.175Z,6.96
2022-11-19T08:21:24.117Z,6.92
2022-11-19T08:22:23.841Z,6.92
2022-11-19T08:23:23.870Z,6.99
2022-11-19T08:24:25.605Z,7.02
2022-11-19T08:25:24.153Z,6.96
2022-11-19T08:26:23.901Z,6.95
2022-11-19T08:27:24.189Z,7.03
2022-11-19T08:28:24.194Z,6.89
2022-11-19T08:29:23.697Z,6.97
2022-11-19T08:30:24.296Z,6.93
2022-11-19T08:31:23.981Z,6.93
2022-11-19T08:32:24.246Z,6.89
2022-11-19T08:33:24.266Z,6.95
2022-11-19T08:34:25.315Z,6.97
2022-11-19T08:35:24.038Z,6.96
2022-11-19T08:36:24.334Z,6.99
2022-11-19T08:37:24.360Z,6.87
2022-11-19T08:38:23.820Z,6.93
2022-11-19T08:39:24.130Z,6.93
2022-11-19T08:40:24.159Z,6.88
2022-11-19T08:41:24.134Z,6.99
2022-11-19T08:42:24.150Z,6.88
2022-11-19T08:43:24.431Z,7.03
2022-11-19T08:44:25.336Z,6.96
2022-11-19T08:45:25.682Z,6.96
2022-11-19T08:46:24.459Z,6.93
2022-11-19T08:47:24.218Z,6.93
2022-11-19T08:48:24.474Z,7.03
2022-11-19T08:49:24.522Z,6.92
2022-11-19T08:50:24.661Z,6.95
2022-11-19T08:51:24.331Z,6.89
2022-11-19T08:52:24.576Z,6.96
2022-11-19T08:53:24.599Z,6.99
2022-11-19T08:54:24.877Z,7
2022-11-19T08:55:24.360Z,6.97
2022-11-19T08:56:24.362Z,6.97
2022-11-19T08:57:24.624Z,6.99
2022-11-19T08:58:24.383Z,6.95
2022-11-19T08:59:25.110Z,6.99
2022-11-19T09:00:24.512Z,6.85
2022-11-19T09:01:24.629Z,6.93
2022-11-19T09:02:24.440Z,6.97
2022-11-19T09:03:24.706Z,7.02
2022-11-19T09:04:25.391Z,6.99
2022-11-19T09:05:24.556Z,6.97
2022-11-19T09:06:24.572Z,6.97
2022-11-19T09:07:24.770Z,6.99
2022-11-19T09:08:24.531Z,7
2022-11-19T09:09:24.853Z,6.93
2022-11-19T09:10:24.868Z,6.95
2022-11-19T09:11:24.592Z,6.95
2022-11-19T09:12:24.855Z,6.92
2022-11-19T09:13:24.612Z,6.92
2022-11-19T09:14:24.976Z,6.93
2022-11-19T09:15:24.452Z,6.85
2022-11-19T09:16:24.649Z,6.96
2022-11-19T09:17:24.668Z,6.97
2022-11-19T09:18:24.940Z,6.99
2022-11-19T09:19:24.698Z,6.93
2022-11-19T09:20:24.719Z,6.93
2022-11-19T09:21:24.726Z,6.96
2022-11-19T09:22:24.788Z,6.99
2022-11-19T09:23:24.749Z,6.87
2022-11-19T09:24:25.648Z,7.02
2022-11-19T09:25:25.263Z,6.89
2022-11-19T09:26:24.805Z,6.89
2022-11-19T09:27:25.078Z,6.97
2022-11-19T09:28:24.827Z,6.92
2022-11-19T09:29:24.595Z,6.85
2022-11-19T09:30:24.864Z,6.87
2022-11-19T09:31:24.886Z,6.96
2022-11-19T09:32:30.207Z,6.95
2022-11-19T09:33:24.902Z,6.93
2022-11-19T09:34:25.373Z,6.97
2022-11-19T09:35:25.003Z,6.88
2022-11-19T09:36:25.223Z,6.89
2022-11-19T09:37:25.248Z,6.93
2022-11-19T09:38:25.113Z,6.87
2022-11-19T09:39:25.253Z,6.92
2022-11-19T09:40:25.494Z,6.89
2022-11-19T09:41:25.390Z,6.84
2022-11-19T09:42:25.296Z,6.88
2022-11-19T09:43:25.318Z,6.88
2022-11-19T09:44:25.460Z,6.87
2022-11-19T09:45:25.229Z,6.82
2022-11-19T09:46:24.849Z,6.84
2022-11-19T09:47:25.113Z,6.85
2022-11-19T09:48:25.390Z,6.87
2022-11-19T09:49:25.403Z,6.84
2022-11-19T09:50:25.569Z,6.74
2022-11-19T09:51:25.479Z,6.87
2022-11-19T09:52:25.457Z,6.79
2022-11-19T09:53:25.477Z,6.87
2022-11-19T09:54:25.797Z,6.78
2022-11-19T09:55:25.133Z,6.82
2022-11-19T09:56:25.514Z,6.81
2022-11-19T09:57:25.566Z,6.85
2022-11-19T09:58:25.538Z,6.82
2022-11-19T09:59:25.584Z,6.82
2022-11-19T10:00:25.303Z,6.75
2022-11-19T10:01:25.581Z,6.74
2022-11-19T10:02:25.621Z,6.82
2022-11-19T10:03:31.786Z,6.84
2022-11-19T10:04:25.894Z,6.84
2022-11-19T10:05:25.659Z,6.79
2022-11-19T10:06:25.659Z,6.81
2022-11-19T10:07:25.698Z,6.84
2022-11-19T10:08:25.446Z,6.81
2022-11-19T10:09:25.444Z,6.81
2022-11-19T10:10:25.829Z,6.85
2022-11-19T10:11:25.734Z,6.85
2022-11-19T10:12:25.747Z,6.85
2022-11-19T10:13:25.791Z,6.82
2022-11-19T10:14:26.354Z,6.81
2022-11-19T10:15:25.989Z,6.72
2022-11-19T10:16:25.807Z,6.67
2022-11-19T10:17:25.826Z,6.75
2022-11-19T10:18:25.578Z,6.7
2022-11-19T10:19:26.043Z,6.77
2022-11-19T10:20:25.602Z,6.67
2022-11-19T10:21:25.888Z,6.78
2022-11-19T10:22:25.649Z,6.67
2022-11-19T10:23:25.907Z,6.66
2022-11-19T10:24:26.414Z,6.77
2022-11-19T10:25:25.735Z,6.7
2022-11-19T10:26:26.011Z,6.79
2022-11-19T10:27:25.975Z,6.84
2022-11-19T10:28:25.998Z,6.82
2022-11-19T10:29:26.589Z,6.84
2022-11-19T10:30:26.030Z,6.87
2022-11-19T10:31:25.798Z,6.79
2022-11-19T10:32:25.785Z,6.77
2022-11-19T10:33:26.066Z,6.75
2022-11-19T10:34:25.852Z,6.77
2022-11-19T10:35:26.164Z,6.82
2022-11-19T10:36:25.855Z,6.82
2022-11-19T10:37:25.861Z,6.79
2022-11-19T10:38:26.135Z,6.79
2022-11-19T10:39:26.818Z,6.79
2022-11-19T10:40:25.909Z,6.81
2022-11-19T10:41:25.932Z,6.79
2022-11-19T10:42:26.238Z,6.79
2022-11-19T10:43:28.177Z,6.82
2022-11-19T10:44:26.684Z,6.79
2022-11-19T10:45:26.384Z,6.79
2022-11-19T10:46:26.246Z,6.77
2022-11-19T10:47:26.008Z,6.82
2022-11-19T10:48:26.288Z,6.84
2022-11-19T10:49:26.592Z,6.84
2022-11-19T10:50:26.315Z,6.77
2022-11-19T10:51:26.117Z,6.84
2022-11-19T10:52:26.347Z,6.87
2022-11-19T10:53:26.355Z,6.77
2022-11-19T10:54:26.383Z,6.82
2022-11-19T10:55:26.487Z,6.82
2022-11-19T10:56:26.404Z,6.82
2022-11-19T10:57:26.423Z,6.81
2022-11-19T10:58:26.223Z,6.82
2022-11-19T10:59:26.724Z,6.81
2022-11-19T11:00:26.455Z,6.85
2022-11-19T11:01:26.794Z,6.82
2022-11-19T11:02:32.425Z,6.79
2022-11-19T11:03:26.247Z,6.85
2022-11-19T11:04:26.261Z,6.79
2022-11-19T11:05:26.527Z,6.84
2022-11-19T11:06:26.613Z,6.85
2022-11-19T11:07:26.744Z,6.79
2022-11-19T11:08:26.322Z,6.79
2022-11-19T11:09:27.006Z,6.84
2022-11-19T11:10:26.356Z,6.81
2022-11-19T11:11:26.617Z,6.82
2022-11-19T11:12:26.389Z,6.7
2022-11-19T11:13:26.128Z,6.77
2022-11-19T11:14:26.751Z,6.81
2022-11-19T11:15:26.434Z,6.79
2022-11-19T11:16:26.455Z,6.84
2022-11-19T11:17:26.745Z,6.85
2022-11-19T11:18:26.734Z,6.82
2022-11-19T11:19:27.362Z,6.81
2022-11-19T11:20:26.761Z,6.84
2022-11-19T11:21:26.785Z,6.81
2022-11-19T11:22:26.530Z,6.81
2022-11-19T11:23:27.108Z,6.87
2022-11-19T11:24:26.830Z,6.75
2022-11-19T11:25:26.838Z,6.82
2022-11-19T11:26:26.589Z,6.75
2022-11-19T11:27:26.872Z,6.69
2022-11-19T11:28:26.866Z,6.79
2022-11-19T11:29:27.001Z,6.85
2022-11-19T11:30:26.966Z,6.81
2022-11-19T11:31:26.921Z,6.84
2022-11-19T11:32:26.414Z,6.81
2022-11-19T11:33:26.995Z,6.69
2022-11-19T11:34:26.975Z,6.81
2022-11-19T11:35:26.721Z,6.85
2022-11-19T11:36:26.996Z,6.75
2022-11-19T11:37:26.498Z,6.85
2022-11-19T11:38:26.959Z,6.78
2022-11-19T11:39:27.130Z,6.74
2022-11-19T11:40:26.794Z,6.88
2022-11-19T11:42:09.296Z,6.82
2022-11-19T11:42:27.085Z,6.82
2022-11-19T11:43:27.103Z,6.79
2022-11-19T11:44:26.847Z,6.84
2022-11-19T11:45:28.156Z,6.84
2022-11-19T11:46:26.935Z,6.88
2022-11-19T11:47:27.169Z,6.85
2022-11-19T11:48:26.660Z,6.84
2022-11-19T11:49:27.998Z,6.95
2022-11-19T11:50:27.203Z,6.84
2022-11-19T11:51:27.254Z,7
2022-11-19T11:52:27.236Z,6.92
2022-11-19T11:53:27.276Z,6.87
2022-11-19T11:54:27.004Z,7
2022-11-19T11:55:27.015Z,6.87
2022-11-19T11:56:27.044Z,7.02
2022-11-19T11:57:27.047Z,6.93
2022-11-19T11:58:27.342Z,6.99
2022-11-19T11:59:27.002Z,6.95
2022-11-19T12:00:27.099Z,6.85
2022-11-19T12:01:27.378Z,6.99
2022-11-19T12:02:27.624Z,7.02
2022-11-19T12:03:27.139Z,6.92
2022-11-19T12:04:27.429Z,6.89
2022-11-19T12:05:27.452Z,7.05
2022-11-19T12:06:27.432Z,7.07
2022-11-19T12:07:27.696Z,7.06
2022-11-19T12:08:31.719Z,7.07
2022-11-19T12:09:27.182Z,7.06
2022-11-19T12:10:27.244Z,7.13
2022-11-19T12:11:27.009Z,7.1
2022-11-19T12:12:27.270Z,7.02
2022-11-19T12:13:27.559Z,7.07
2022-11-19T12:14:27.561Z,7.07
2022-11-19T12:15:27.577Z,7.07
2022-11-19T12:16:27.339Z,7.02
2022-11-19T12:17:27.346Z,7.06
2022-11-19T12:18:27.679Z,7.1
2022-11-19T12:19:27.808Z,7.07
2022-11-19T12:20:27.393Z,7.1
2022-11-19T12:21:27.690Z,7.07
2022-11-19T12:22:27.685Z,7.13
2022-11-19T12:23:27.439Z,7.11
2022-11-19T12:24:27.716Z,7.1
2022-11-19T12:25:27.482Z,7.02
2022-11-19T12:26:27.737Z,7.03
2022-11-19T12:27:27.752Z,7.03
2022-11-19T12:28:27.775Z,7.02
2022-11-19T12:29:28.061Z,7
2022-11-19T12:30:27.797Z,6.99
2022-11-19T12:31:33.481Z,6.92
2022-11-19T12:32:27.837Z,6.99
2022-11-19T12:33:27.851Z,6.93
2022-11-19T12:34:27.905Z,6.95
2022-11-19T12:35:27.617Z,6.99
2022-11-19T12:36:27.638Z,6.95
2022-11-19T12:37:27.680Z,6.95
2022-11-19T12:38:27.654Z,6.97
2022-11-19T12:39:27.927Z,6.92
2022-11-19T12:40:29.995Z,6.93
2022-11-19T12:41:27.961Z,6.97
2022-11-19T12:42:27.724Z,6.99
2022-11-19T12:43:27.739Z,6.93
2022-11-19T12:44:28.007Z,6.95
2022-11-19T12:45:28.018Z,6.95
2022-11-19T12:46:27.776Z,7.07
2022-11-19T12:47:27.796Z,7.06
2022-11-19T12:48:27.538Z,7
2022-11-19T12:49:27.815Z,7.1
2022-11-19T12:50:28.138Z,7.11
2022-11-19T12:51:28.045Z,7.11
2022-11-19T12:52:27.619Z,7.13
2022-11-19T12:53:28.166Z,7.1
2022-11-19T12:54:38.240Z,7.07
2022-11-19T12:55:27.914Z,7.14
2022-11-19T12:56:27.916Z,7.06
2022-11-19T12:57:28.209Z,7.05
2022-11-19T12:58:27.959Z,7.1
2022-11-19T12:59:28.332Z,7.03
2022-11-19T13:00:27.992Z,7.14
2022-11-19T13:01:28.206Z,7.13
2022-11-19T13:02:28.012Z,7.11
2022-11-19T13:03:27.775Z,7.06
2022-11-19T13:04:28.046Z,7.13
2022-11-19T13:05:28.065Z,7.06
2022-11-19T13:06:28.221Z,7.05
2022-11-19T13:07:28.070Z,7.05
2022-11-19T13:08:28.365Z,7.13
2022-11-19T13:09:28.409Z,7.11
2022-11-19T13:10:28.137Z,6.93
2022-11-19T13:11:28.419Z,6.95
2022-11-19T13:12:28.159Z,6.89
2022-11-19T13:13:28.434Z,6.96
2022-11-19T13:14:28.455Z,6.97
2022-11-19T13:15:28.205Z,6.89
2022-11-19T13:16:28.216Z,6.95
2022-11-19T13:17:28.244Z,6.85
2022-11-19T13:18:28.506Z,6.99